< < Back
Terminal Aerodrome Forecast


Current Version              Previous Versions:   1  2  3  4  5  6  7  8  9  

Terminal Aerodrome Forecast

355
FTUS42 KGSP 210500
TAFHKY
TAF
KHKY 210524Z 2106/2206 00000KT P6SM BKN150
     FM210900 26003KT 5SM BR FEW250
     FM211300 27005KT P6SM FEW250
     FM211800 30011KT P6SM SCT045
     FM220000 33009G20KT P6SM FEW040=

Latest METAR

942
SAUS70 KWBC 211600 RRF
MTRHKY
METAR KHKY 211553Z AUTO 30006KT 10SM CLR 19/09 A2994 RMK AO2 SLP123
T01940089


USA.gov is the U.S. government's official web portal to all federal, state and local government web resources and services.